Time;durP1;ratioP1;P1;durP2;ratioP2;P2;SDS_P1;SDS_P2;PMS_P1;PMS_P2;Temp;Humidity;BMP_temperature;BMP_pressure;BME280_temperature;BME280_humidity;BME280_pressure;Samples;Min_cycle;Max_cycle;Signal;HPM_P1;HPM_P2
2021/01/13 00:02:19;;;;;;;15.53;10.50;;;1.40;99.90;;;;;;4938758;28;20528;-68
2021/01/13 00:04:44;;;;;;;20.03;11.97;;;1.50;99.90;;;;;;4952912;28;20177;-69
2021/01/13 00:07:12;;;;;;;15.33;10.23;;;1.50;99.90;;;;;;4946686;28;20232;-68
2021/01/13 00:09:38;;;;;;;16.57;10.17;;;1.50;99.90;;;;;;4950497;28;20243;-69
2021/01/13 00:12:04;;;;;;;15.10;10.50;;;1.60;99.90;;;;;;4952951;28;20444;-68
2021/01/13 00:14:30;;;;;;;14.07;9.97;;;1.60;99.90;;;;;;4942481;28;20181;-69
2021/01/13 00:16:55;;;;;;;13.73;10.50;;;1.60;99.90;;;;;;4952507;28;20456;-69
2021/01/13 00:19:21;;;;;;;14.70;11.50;;;1.70;99.90;;;;;;4948999;29;20209;-68
2021/01/13 00:21:50;;;;;;;15.93;9.97;;;1.70;99.90;;;;;;4950681;28;20530;-69
2021/01/13 00:24:17;;;;;;;13.60;9.57;;;1.80;99.90;;;;;;4947144;29;20714;-68
2021/01/13 00:26:43;;;;;;;13.27;10.20;;;1.80;99.90;;;;;;4950191;29;20460;-69
2021/01/13 00:29:12;;;;;;;13.47;8.57;;;1.80;99.90;;;;;;4936393;28;20434;-69
2021/01/13 00:31:38;;;;;;;15.30;10.07;;;1.80;99.90;;;;;;4943387;29;20463;-69
2021/01/13 00:34:09;;;;;;;12.50;8.13;;;1.80;99.90;;;;;;4949117;29;20437;-68
2021/01/13 00:36:34;;;;;;;11.50;8.90;;;1.70;99.90;;;;;;4940624;29;20296;-69
2021/01/13 00:39:01;;;;;;;14.07;8.83;;;1.70;99.90;;;;;;4951939;29;20559;-68
2021/01/13 00:41:26;;;;;;;8.20;6.47;;;1.70;99.90;;;;;;4951698;29;20296;-68
2021/01/13 00:43:53;;;;;;;11.53;6.50;;;1.60;99.90;;;;;;4952216;29;20520;-68
2021/01/13 00:46:20;;;;;;;10.00;7.57;;;1.70;99.90;;;;;;4946538;28;20211;-68
2021/01/13 00:48:46;;;;;;;7.87;6.27;;;1.70;99.90;;;;;;4950089;29;20445;-67
2021/01/13 00:51:12;;;;;;;7.47;6.50;;;1.80;99.90;;;;;;4952125;29;20539;-68
2021/01/13 00:53:37;;;;;;;12.27;6.30;;;1.80;99.90;;;;;;4949057;29;20445;-68
2021/01/13 00:56:03;;;;;;;9.50;7.23;;;1.80;99.90;;;;;;4944463;29;20436;-68
2021/01/13 00:58:29;;;;;;;10.97;6.53;;;1.80;99.90;;;;;;4947222;29;20283;-68
2021/01/13 01:00:54;;;;;;;10.97;6.20;;;1.90;99.90;;;;;;4949867;29;20456;-68
2021/01/13 01:03:21;;;;;;;8.77;6.23;;;1.90;99.90;;;;;;4952074;29;20205;-68
2021/01/13 01:05:48;;;;;;;9.83;7.07;;;1.90;99.90;;;;;;4948650;29;20170;-68
2021/01/13 01:08:14;;;;;;;7.90;6.43;;;1.90;99.90;;;;;;4944076;29;20961;-68
2021/01/13 01:10:39;;;;;;;9.17;6.27;;;1.90;99.90;;;;;;4949345;29;20500;-68
2021/01/13 01:13:07;;;;;;;9.77;6.90;;;1.90;99.90;;;;;;4951176;29;20169;-68
2021/01/13 01:15:35;;;;;;;15.70;7.60;;;2.00;99.90;;;;;;4953463;28;20177;-68
2021/01/13 01:18:01;;;;;;;8.30;6.60;;;2.00;99.90;;;;;;4953723;28;20471;-68
2021/01/13 01:20:26;;;;;;;7.10;5.60;;;2.00;99.90;;;;;;4955644;28;20440;-68
2021/01/13 01:22:57;;;;;;;7.60;5.70;;;2.00;99.90;;;;;;4969979;28;20544;-68
2021/01/13 01:25:24;;;;;;;6.70;6.00;;;2.00;99.90;;;;;;4944919;29;20182;-68
2021/01/13 01:27:51;;;;;;;7.87;6.13;;;2.00;99.90;;;;;;4955113;28;20456;-68
2021/01/13 01:30:18;;;;;;;10.20;6.50;;;2.00;99.90;;;;;;4937035;28;20440;-68
2021/01/13 01:32:44;;;;;;;6.20;5.43;;;2.00;99.90;;;;;;4946953;29;21066;-68
2021/01/13 01:35:11;;;;;;;5.97;5.37;;;2.10;99.90;;;;;;4955213;28;20447;-68
2021/01/13 01:37:37;;;;;;;6.83;5.47;;;2.10;99.90;;;;;;4954414;28;20573;-68
2021/01/13 01:40:04;;;;;;;6.17;5.10;;;2.10;99.90;;;;;;4953502;28;20441;-68
2021/01/13 01:42:30;;;;;;;5.90;5.30;;;2.20;99.90;;;;;;4955071;28;20527;-68
2021/01/13 01:44:56;;;;;;;7.07;5.80;;;2.20;99.90;;;;;;4954745;29;20527;-68
2021/01/13 01:48:01;;;;;;;6.60;4.40;;;2.10;99.90;;;;;;4955055;29;20332;-68
2021/01/13 01:50:33;;;;;;;9.97;5.13;;;2.10;99.90;;;;;;4948145;29;20180;-68
2021/01/13 01:53:28;;;;;;;7.37;4.80;;;2.10;99.90;;;;;;4939912;29;20452;-68
2021/01/13 01:56:05;;;;;;;8.37;4.93;;;2.10;99.90;;;;;;4954950;28;20448;-68
2021/01/13 01:58:31;;;;;;;8.50;4.17;;;2.10;99.90;;;;;;4953250;29;20468;-68
2021/01/13 02:01:01;;;;;;;8.23;4.43;;;2.10;99.90;;;;;;4946018;28;20437;-68
2021/01/13 02:03:29;;;;;;;7.40;4.60;;;2.00;99.90;;;;;;4954927;29;20436;-68
2021/01/13 02:06:04;;;;;;;7.50;4.00;;;2.10;99.90;;;;;;4952511;29;20433;-67
2021/01/13 02:08:37;;;;;;;5.57;3.97;;;2.10;99.90;;;;;;4953420;29;20522;-68
2021/01/13 02:11:03;;;;;;;13.20;4.90;;;2.00;99.90;;;;;;4954325;29;20856;-68
2021/01/13 02:13:28;;;;;;;7.03;3.80;;;2.10;99.90;;;;;;4953190;29;20444;-68
2021/01/13 02:15:54;;;;;;;13.50;5.10;;;2.10;99.90;;;;;;4954515;29;20184;-68
2021/01/13 02:18:22;;;;;;;6.93;4.70;;;2.10;99.90;;;;;;4950101;29;20221;-68
2021/01/13 02:20:55;;;;;;;5.53;4.47;;;2.10;99.90;;;;;;4940555;29;20440;-68
2021/01/13 02:23:30;;;;;;;6.60;4.27;;;2.10;99.90;;;;;;4946387;29;20467;-68
2021/01/13 02:26:38;;;;;;;6.37;4.60;;;2.10;99.90;;;;;;4950810;28;20535;-68
2021/01/13 02:29:15;;;;;;;5.63;4.10;;;2.10;99.90;;;;;;4946125;29;20444;-68
2021/01/13 02:31:49;;;;;;;9.57;4.90;;;2.10;99.90;;;;;;4950122;29;20440;-67
2021/01/13 02:34:31;;;;;;;9.03;5.10;;;2.10;99.90;;;;;;4952913;29;20443;-68
2021/01/13 02:37:09;;;;;;;10.10;4.40;;;2.10;99.90;;;;;;4953351;28;20566;-68
2021/01/13 02:39:36;;;;;;;6.43;4.20;;;2.10;99.90;;;;;;4953699;29;20470;-67
2021/01/13 02:42:02;;;;;;;4.97;4.03;;;2.10;99.90;;;;;;4941334;28;20436;-68
2021/01/13 02:44:29;;;;;;;5.60;3.83;;;2.20;99.90;;;;;;4945056;29;20437;-68
2021/01/13 02:46:55;;;;;;;5.73;3.57;;;2.20;99.90;;;;;;4950425;28;20504;-68
2021/01/13 02:49:26;;;;;;;4.07;3.60;;;2.10;99.90;;;;;;4942843;29;20472;-68
2021/01/13 02:51:55;;;;;;;7.33;4.10;;;2.10;99.90;;;;;;4953881;29;20196;-68
2021/01/13 02:54:33;;;;;;;4.43;3.70;;;2.10;99.90;;;;;;4952530;28;20448;-68
2021/01/13 02:57:09;;;;;;;4.73;3.77;;;2.20;99.90;;;;;;4953236;28;20867;-68
2021/01/13 02:59:37;;;;;;;10.13;3.40;;;2.20;99.90;;;;;;4945667;28;20463;-67
2021/01/13 03:02:10;;;;;;;7.00;4.23;;;2.30;99.90;;;;;;4952209;28;20957;-68
2021/01/13 03:04:39;;;;;;;5.30;4.67;;;2.30;99.90;;;;;;4952786;28;20437;-67
2021/01/13 03:07:13;;;;;;;8.37;4.50;;;2.20;99.90;;;;;;4937860;28;20453;-68
2021/01/13 03:09:47;;;;;;;6.20;4.20;;;2.20;99.90;;;;;;4952752;29;20487;-68
2021/01/13 03:12:21;;;;;;;6.67;3.93;;;2.10;99.90;;;;;;4953575;28;20809;-69
2021/01/13 03:14:57;;;;;;;7.90;5.50;;;2.10;99.90;;;;;;4951786;29;20511;-68
2021/01/13 03:18:03;;;;;;;8.70;4.27;;;2.10;99.90;;;;;;4953465;28;20849;-68
2021/01/13 03:20:50;;;;;;;7.27;5.20;;;2.10;99.90;;;;;;4944768;29;20490;-68
2021/01/13 03:23:23;;;;;;;7.70;4.40;;;2.00;99.90;;;;;;4951887;29;20443;-67
2021/01/13 03:25:52;;;;;;;5.43;3.93;;;2.00;99.90;;;;;;4952795;28;20942;-68
2021/01/13 03:28:23;;;;;;;6.87;4.27;;;2.00;99.90;;;;;;4951467;29;20444;-68
2021/01/13 03:30:50;;;;;;;12.50;3.73;;;2.00;99.90;;;;;;4952637;29;20436;-68
2021/01/13 03:33:16;;;;;;;5.00;3.40;;;2.00;99.90;;;;;;4946203;29;20437;-67
2021/01/13 03:35:52;;;;;;;4.70;3.73;;;2.00;99.90;;;;;;4944689;29;20451;-68
2021/01/13 03:38:19;;;;;;;5.53;3.67;;;2.00;99.90;;;;;;4949941;28;20212;-68
2021/01/13 03:40:46;;;;;;;8.40;2.87;;;1.90;99.90;;;;;;4952862;29;20797;-68
2021/01/13 03:43:20;;;;;;;4.40;3.30;;;1.90;99.90;;;;;;4952464;29;20428;-67
2021/01/13 03:45:51;;;;;;;5.37;3.50;;;1.90;99.90;;;;;;4951906;28;20436;-68
2021/01/13 03:48:35;;;;;;;5.90;3.63;;;1.80;99.90;;;;;;4951919;28;21541;-67
2021/01/13 03:51:01;;;;;;;7.33;3.60;;;1.80;99.90;;;;;;4952380;28;20440;-68
2021/01/13 03:53:28;;;;;;;9.13;4.33;;;1.80;99.90;;;;;;4950700;29;20768;-68
2021/01/13 03:55:56;;;;;;;4.40;3.17;;;1.80;99.90;;;;;;4952031;29;20448;-68
2021/01/13 03:58:34;;;;;;;6.70;3.27;;;1.80;99.90;;;;;;4952028;29;20467;-68
2021/01/13 04:01:01;;;;;;;5.83;3.80;;;1.80;99.90;;;;;;4946395;29;20435;-68
2021/01/13 04:03:33;;;;;;;7.30;4.47;;;1.70;99.90;;;;;;4950795;29;20464;-68
2021/01/13 04:06:12;;;;;;;6.50;4.03;;;1.70;99.90;;;;;;4952249;29;20976;-68
2021/01/13 04:08:40;;;;;;;5.37;3.90;;;1.70;99.90;;;;;;4951651;29;20440;-68
2021/01/13 04:11:14;;;;;;;9.73;4.80;;;1.70;99.90;;;;;;4951093;29;20491;-68
2021/01/13 04:14:07;;;;;;;7.10;3.60;;;1.70;99.90;;;;;;4948919;29;21097;-68
2021/01/13 04:16:38;;;;;;;6.90;3.50;;;1.70;99.90;;;;;;4951580;28;20978;-68
2021/01/13 04:19:05;;;;;;;10.20;4.40;;;1.60;99.90;;;;;;4952525;28;20464;-68
2021/01/13 04:21:31;;;;;;;6.20;4.70;;;1.60;99.90;;;;;;4952886;28;20436;-68
2021/01/13 04:23:58;;;;;;;6.23;4.20;;;1.60;99.90;;;;;;4950811;29;20444;-68
2021/01/13 04:26:24;;;;;;;6.53;4.10;;;1.60;99.90;;;;;;4952275;28;20864;-68
2021/01/13 04:28:50;;;;;;;6.60;3.67;;;1.60;99.90;;;;;;4951436;29;20502;-68
2021/01/13 04:31:16;;;;;;;9.03;4.93;;;1.60;99.90;;;;;;4952450;29;20471;-68
2021/01/13 04:33:42;;;;;;;11.67;3.53;;;1.50;99.90;;;;;;4947085;28;20181;-68
2021/01/13 04:36:08;;;;;;;10.90;4.00;;;1.50;99.90;;;;;;4948557;28;20444;-68
2021/01/13 04:38:35;;;;;;;5.90;4.10;;;1.50;99.90;;;;;;4951253;29;20468;-68
2021/01/13 04:41:12;;;;;;;9.93;4.10;;;1.50;99.90;;;;;;4952343;28;20447;-68
2021/01/13 04:43:53;;;;;;;10.63;5.73;;;1.50;99.90;;;;;;4951708;28;20447;-68
2021/01/13 04:46:29;;;;;;;8.37;3.70;;;1.40;99.90;;;;;;4937908;28;20476;-68
2021/01/13 04:49:20;;;;;;;12.73;4.80;;;1.40;99.90;;;;;;4946692;29;20441;-68
2021/01/13 04:51:47;;;;;;;6.13;4.47;;;1.50;99.90;;;;;;4952294;28;21005;-68
2021/01/13 04:54:19;;;;;;;9.70;6.00;;;1.50;99.90;;;;;;4953971;29;20510;-68
2021/01/13 04:56:45;;;;;;;7.90;4.83;;;1.50;99.90;;;;;;4955908;28;20836;-68
2021/01/13 04:59:38;;;;;;;5.60;4.77;;;1.50;99.90;;;;;;4949369;29;20469;-68
2021/01/13 05:02:05;;;;;;;5.73;4.37;;;1.50;99.90;;;;;;4941459;29;20181;-68
2021/01/13 05:04:56;;;;;;;10.20;4.83;;;1.60;99.90;;;;;;4955225;28;20440;-67
2021/01/13 05:07:39;;;;;;;9.50;4.60;;;1.60;99.90;;;;;;4955442;29;20491;-68
2021/01/13 05:10:16;;;;;;;7.67;4.83;;;1.60;99.90;;;;;;4955017;29;20428;-68
2021/01/13 05:13:11;;;;;;;7.13;4.60;;;1.70;99.90;;;;;;4955778;29;20441;-68
2021/01/13 05:15:40;;;;;;;9.70;4.40;;;1.70;99.90;;;;;;4954036;28;20455;-68
2021/01/13 05:18:16;;;;;;;6.37;4.50;;;1.70;99.90;;;;;;4945396;29;21053;-68
2021/01/13 05:20:44;;;;;;;9.63;4.17;;;1.70;99.90;;;;;;4955635;28;20444;-68
2021/01/13 05:23:11;;;;;;;9.23;4.93;;;1.80;99.90;;;;;;4953804;29;20544;-68
2021/01/13 05:25:45;;;;;;;6.87;5.17;;;1.70;99.90;;;;;;4951166;28;20444;-68
2021/01/13 05:28:15;;;;;;;12.97;4.50;;;1.70;99.90;;;;;;4941810;29;20467;-68
2021/01/13 05:30:50;;;;;;;6.40;5.20;;;1.70;99.90;;;;;;4946730;29;20469;-68
2021/01/13 05:33:19;;;;;;;8.43;5.37;;;1.70;99.90;;;;;;4955369;29;20443;-68
2021/01/13 05:35:54;;;;;;;5.93;5.33;;;1.70;99.90;;;;;;4954359;29;20444;-68
2021/01/13 05:38:37;;;;;;;8.00;4.30;;;1.60;99.90;;;;;;4955079;29;20499;-69
2021/01/13 05:41:10;;;;;;;7.67;4.23;;;1.70;99.90;;;;;;4955317;29;20464;-68
2021/01/13 05:43:42;;;;;;;8.27;4.90;;;1.60;99.90;;;;;;4955012;29;20444;-68
2021/01/13 05:46:14;;;;;;;7.63;4.60;;;1.60;99.90;;;;;;4955088;28;20437;-68
2021/01/13 05:48:42;;;;;;;7.63;4.90;;;1.60;99.90;;;;;;4950293;29;20457;-68
2021/01/13 05:51:08;;;;;;;7.77;5.53;;;1.50;99.90;;;;;;4951450;29;20472;-68
2021/01/13 05:53:34;;;;;;;6.97;4.67;;;1.60;99.90;;;;;;4953892;28;21013;-68
2021/01/13 05:56:03;;;;;;;12.83;5.60;;;1.60;99.90;;;;;;4950555;29;20635;-70
2021/01/13 05:58:29;;;;;;;10.93;5.60;;;1.60;99.90;;;;;;4951246;29;20472;-68
2021/01/13 06:00:59;;;;;;;7.57;5.17;;;1.60;99.90;;;;;;4954576;28;20829;-68
2021/01/13 06:03:29;;;;;;;7.23;5.03;;;1.60;99.90;;;;;;4954614;29;20807;-68
2021/01/13 06:05:59;;;;;;;13.23;4.87;;;1.50;99.90;;;;;;4942326;28;20748;-68
2021/01/13 06:08:28;;;;;;;15.50;5.70;;;1.50;99.90;;;;;;4954347;29;20950;-68
2021/01/13 06:10:58;;;;;;;12.17;4.97;;;1.40;99.90;;;;;;4950046;28;20448;-68
2021/01/13 06:13:29;;;;;;;6.10;5.07;;;1.30;99.90;;;;;;4950162;29;20467;-68
2021/01/13 06:15:59;;;;;;;7.50;5.03;;;1.30;99.90;;;;;;4954153;28;20447;-67
2021/01/13 06:18:26;;;;;;;7.60;5.30;;;1.30;99.90;;;;;;4940494;29;20491;-68
2021/01/13 06:20:57;;;;;;;10.70;5.60;;;1.20;99.90;;;;;;4949006;28;20451;-68
2021/01/13 06:23:25;;;;;;;6.30;4.50;;;1.20;99.90;;;;;;4953341;28;20451;-68
2021/01/13 06:25:53;;;;;;;7.20;5.00;;;1.10;99.90;;;;;;4951778;29;20515;-68
2021/01/13 06:28:25;;;;;;;9.77;5.47;;;1.10;99.90;;;;;;4953476;28;20463;-68
2021/01/13 06:31:01;;;;;;;8.30;4.93;;;1.10;99.90;;;;;;4953647;29;21175;-68
2021/01/13 06:33:34;;;;;;;7.27;6.20;;;1.20;99.90;;;;;;4954207;28;20451;-67
2021/01/13 06:36:13;;;;;;;11.43;6.77;;;1.70;99.90;;;;;;4951648;29;20524;-67
2021/01/13 06:39:00;;;;;;;8.00;6.20;;;2.20;99.90;;;;;;4953877;28;21044;-67
2021/01/13 06:41:27;;;;;;;7.10;5.70;;;2.50;99.90;;;;;;4953882;28;20437;-66
2021/01/13 06:44:11;;;;;;;5.80;5.20;;;2.60;99.90;;;;;;4954168;29;20456;-68
2021/01/13 06:46:36;;;;;;;9.23;4.67;;;2.70;99.90;;;;;;4953721;28;20467;-66
2021/01/13 06:49:22;;;;;;;7.73;4.87;;;2.50;99.90;;;;;;4953840;29;20812;-66
2021/01/13 06:51:52;;;;;;;7.63;5.40;;;2.20;99.90;;;;;;4954171;28;20184;-66
2021/01/13 06:54:19;;;;;;;6.80;5.13;;;1.90;99.90;;;;;;4951886;28;21005;-67
2021/01/13 06:56:51;;;;;;;9.53;6.00;;;1.60;99.90;;;;;;4953488;29;20997;-67
2021/01/13 06:59:18;;;;;;;22.60;8.17;;;1.40;99.90;;;;;;4953565;29;20503;-67
2021/01/13 07:01:51;;;;;;;9.20;6.60;;;1.30;99.90;;;;;;4941213;28;20445;-67
2021/01/13 07:04:17;;;;;;;24.17;13.33;;;1.20;99.90;;;;;;4948892;29;20440;-67
2021/01/13 07:06:59;;;;;;;8.83;6.30;;;1.10;99.90;;;;;;4944370;29;20460;-68
2021/01/13 07:09:43;;;;;;;11.33;7.03;;;1.10;99.90;;;;;;4953480;28;21061;-67
2021/01/13 07:12:14;;;;;;;11.83;8.30;;;1.00;99.90;;;;;;4950599;28;20515;-69
2021/01/13 07:14:43;;;;;;;10.40;7.00;;;1.00;99.90;;;;;;4943067;29;20814;-69
2021/01/13 07:17:16;;;;;;;11.73;6.90;;;1.00;99.90;;;;;;4950696;29;20457;-67
2021/01/13 07:19:50;;;;;;;11.50;8.53;;;1.00;99.90;;;;;;4949495;29;20476;-67
2021/01/13 07:22:18;;;;;;;15.40;9.30;;;0.90;99.90;;;;;;4935034;29;20878;-68
2021/01/13 07:24:44;;;;;;;17.20;9.20;;;0.90;99.90;;;;;;4947031;28;20527;-69
2021/01/13 07:27:11;;;;;;;16.27;8.30;;;0.90;99.90;;;;;;4937843;28;20488;-68
2021/01/13 07:29:37;;;;;;;11.80;8.50;;;0.90;99.90;;;;;;4910179;29;20453;-68
2021/01/13 07:32:04;;;;;;;13.17;7.37;;;0.90;99.90;;;;;;4937229;28;20975;-67
2021/01/13 07:34:34;;;;;;;15.50;8.63;;;0.90;99.90;;;;;;4942161;28;20455;-67
2021/01/13 07:37:05;;;;;;;20.30;10.50;;;0.90;99.90;;;;;;4945526;28;20564;-68
2021/01/13 07:40:21;;;;;;;13.43;10.53;;;1.00;99.90;;;;;;4946536;29;20472;-67
2021/01/13 07:42:47;;;;;;;16.03;9.73;;;1.00;99.90;;;;;;4939945;28;20456;-67
2021/01/13 07:45:18;;;;;;;14.47;9.20;;;0.90;99.90;;;;;;4942355;28;20843;-68
2021/01/13 07:47:56;;;;;;;12.33;9.07;;;0.90;99.90;;;;;;4944072;29;20551;-67
2021/01/13 07:50:23;;;;;;;13.47;8.47;;;1.00;99.90;;;;;;4941088;29;20891;-67
2021/01/13 07:52:51;;;;;;;8.80;7.40;;;1.00;99.90;;;;;;4948930;29;20455;-67
2021/01/13 07:55:21;;;;;;;11.13;7.20;;;1.10;99.90;;;;;;4949419;28;20444;-67
2021/01/13 07:57:55;;;;;;;9.17;7.70;;;1.20;99.90;;;;;;4940232;28;20559;-67
2021/01/13 08:00:56;;;;;;;14.57;7.80;;;1.20;99.90;;;;;;4947385;29;20444;-67
2021/01/13 08:03:49;;;;;;;12.50;8.90;;;1.30;99.90;;;;;;4944039;29;20499;-68
2021/01/13 08:06:46;;;;;;;17.67;11.37;;;1.40;99.90;;;;;;4940063;29;20483;-68
2021/01/13 08:09:17;;;;;;;18.27;12.47;;;1.80;99.90;;;;;;4942961;29;20531;-67
2021/01/13 08:11:56;;;;;;;14.57;9.20;;;2.50;99.90;;;;;;4937024;28;20456;-67
2021/01/13 08:14:59;;;;;;;17.17;10.20;;;3.10;99.90;;;;;;4948415;28;21005;-67
2021/01/13 08:17:37;;;;;;;12.20;9.10;;;3.30;99.90;;;;;;4945516;29;20467;-67
2021/01/13 08:20:22;;;;;;;14.43;8.63;;;3.50;99.90;;;;;;4937939;29;20530;-67
2021/01/13 08:22:59;;;;;;;10.67;6.67;;;3.50;99.90;;;;;;4946093;29;20507;-67
2021/01/13 08:25:28;;;;;;;11.83;8.10;;;3.20;99.90;;;;;;4943343;28;21000;-68
2021/01/13 08:27:58;;;;;;;7.70;7.00;;;3.20;99.90;;;;;;4944177;29;20456;-67
2021/01/13 08:30:30;;;;;;;11.17;8.20;;;3.10;99.90;;;;;;4944051;28;20448;-67
2021/01/13 08:32:56;;;;;;;8.60;7.50;;;3.10;99.90;;;;;;4948006;29;20451;-67
2021/01/13 08:35:34;;;;;;;10.70;6.20;;;2.90;99.90;;;;;;4946679;29;20593;-68
2021/01/13 08:38:12;;;;;;;7.60;6.13;;;2.70;99.90;;;;;;4943843;29;20599;-67
2021/01/13 08:40:38;;;;;;;10.63;5.40;;;2.60;99.90;;;;;;4946613;29;20487;-66
2021/01/13 08:43:15;;;;;;;13.83;6.93;;;2.50;99.90;;;;;;4941605;29;20802;-66
2021/01/13 08:45:46;;;;;;;9.47;6.10;;;2.60;99.90;;;;;;4948419;29;20448;-67
2021/01/13 08:48:13;;;;;;;9.73;5.27;;;4.00;99.90;;;;;;4944198;28;20476;-66
2021/01/13 08:50:41;;;;;;;5.97;4.50;;;6.00;99.90;;;;;;4947810;28;20448;-67
2021/01/13 08:53:08;;;;;;;13.97;9.63;;;7.10;99.90;;;;;;4947991;28;20567;-67
2021/01/13 08:55:34;;;;;;;8.53;6.90;;;7.30;99.90;;;;;;4945448;29;20566;-68
2021/01/13 08:58:07;;;;;;;7.60;5.33;;;7.20;99.90;;;;;;4935683;28;20468;-67
2021/01/13 09:00:37;;;;;;;10.33;5.27;;;6.30;99.90;;;;;;4941949;29;20500;-67
2021/01/13 09:03:06;;;;;;;8.53;4.77;;;5.80;99.90;;;;;;4943114;29;20453;-68
2021/01/13 09:05:34;;;;;;;5.27;4.77;;;5.50;99.90;;;;;;4947407;29;21032;-67
2021/01/13 09:08:02;;;;;;;6.87;5.20;;;5.00;99.90;;;;;;4938250;28;20456;-67
2021/01/13 09:10:49;;;;;;;4.93;4.43;;;4.70;99.90;;;;;;4949016;29;20477;-66
2021/01/13 09:13:35;;;;;;;5.90;4.60;;;4.60;99.90;;;;;;4948241;28;20862;-67
2021/01/13 09:16:31;;;;;;;11.87;5.13;;;4.40;99.90;;;;;;4948365;28;20437;-67
2021/01/13 09:18:59;;;;;;;7.47;4.70;;;4.30;99.90;;;;;;4939836;28;20480;-67
2021/01/13 09:21:30;;;;;;;3.83;3.53;;;4.30;99.90;;;;;;4948385;29;21069;-67
2021/01/13 09:23:56;;;;;;;9.10;4.50;;;4.10;99.90;;;;;;4940113;29;20444;-67
2021/01/13 09:26:38;;;;;;;7.43;4.70;;;4.10;99.90;;;;;;4936348;28;20460;-67
2021/01/13 09:29:10;;;;;;;4.37;3.97;;;4.10;99.90;;;;;;4944938;29;20483;-67
2021/01/13 09:31:38;;;;;;;5.83;4.03;;;3.80;99.90;;;;;;4947579;28;20560;-67
2021/01/13 09:34:05;;;;;;;5.93;3.90;;;3.60;99.90;;;;;;4948056;29;20556;-67
2021/01/13 09:36:57;;;;;;;4.50;3.53;;;3.40;99.90;;;;;;4949930;28;20487;-66
2021/01/13 09:39:36;;;;;;;5.20;4.50;;;3.30;99.90;;;;;;4964653;28;20484;-67
2021/01/13 09:42:04;;;;;;;10.87;8.33;;;3.20;99.90;;;;;;4951299;28;20428;-68
2021/01/13 09:44:32;;;;;;;5.07;4.13;;;3.10;99.90;;;;;;4949988;29;20448;-66
2021/01/13 09:46:59;;;;;;;11.23;7.60;;;3.00;99.90;;;;;;4949099;29;20459;-68
2021/01/13 09:49:25;;;;;;;7.60;4.23;;;3.00;99.90;;;;;;4946112;29;20447;-67
2021/01/13 09:51:51;;;;;;;6.27;4.10;;;3.10;99.90;;;;;;4950782;29;20551;-72
2021/01/13 09:54:23;;;;;;;4.90;4.30;;;3.10;99.90;;;;;;4950781;29;20451;-67
2021/01/13 09:56:55;;;;;;;6.30;4.00;;;3.20;99.90;;;;;;4943954;28;20499;-67
2021/01/13 09:59:24;;;;;;;6.47;3.80;;;3.20;99.90;;;;;;4944405;28;20473;-67
2021/01/13 10:01:55;;;;;;;5.63;4.57;;;3.20;99.90;;;;;;4949998;29;20437;-67
2021/01/13 10:04:20;;;;;;;5.23;4.50;;;3.20;99.90;;;;;;4947291;28;20449;-68
2021/01/13 10:06:52;;;;;;;8.00;3.53;;;3.20;99.90;;;;;;4949895;28;20483;-68
2021/01/13 10:09:19;;;;;;;6.17;5.20;;;3.20;99.90;;;;;;4957897;28;20217;-67
2021/01/13 10:11:45;;;;;;;8.13;4.57;;;3.30;99.90;;;;;;4950885;28;20445;-67
2021/01/13 10:14:13;;;;;;;9.00;3.77;;;3.20;99.90;;;;;;4947783;28;20531;-66
2021/01/13 10:16:43;;;;;;;6.30;4.73;;;3.30;99.90;;;;;;4950448;28;20491;-67
2021/01/13 10:19:10;;;;;;;6.00;4.40;;;3.40;99.90;;;;;;4946015;29;20576;-67
2021/01/13 10:21:44;;;;;;;7.40;6.03;;;3.50;99.90;;;;;;4949725;28;20432;-67
2021/01/13 10:24:15;;;;;;;7.63;5.07;;;3.70;99.90;;;;;;4942002;29;20507;-67
2021/01/13 10:26:42;;;;;;;8.77;7.10;;;3.80;99.90;;;;;;4945949;29;20469;-66
2021/01/13 10:29:09;;;;;;;7.50;5.13;;;3.90;99.90;;;;;;4939825;29;20449;-67
2021/01/13 10:31:35;;;;;;;7.80;4.80;;;4.00;99.90;;;;;;4949597;29;20496;-68
2021/01/13 10:34:02;;;;;;;5.70;4.30;;;4.30;99.90;;;;;;4949724;29;20459;-67
2021/01/13 10:37:00;;;;;;;10.17;4.03;;;4.60;99.90;;;;;;4950633;28;20476;-66
2021/01/13 10:39:27;;;;;;;6.57;3.70;;;5.50;99.90;;;;;;4951897;28;20478;-67
2021/01/13 10:42:04;;;;;;;7.73;4.50;;;5.80;99.90;;;;;;4948849;29;20448;-67
2021/01/13 10:44:30;;;;;;;6.30;3.47;;;5.70;99.90;;;;;;4950123;29;20783;-66
2021/01/13 10:47:03;;;;;;;10.40;4.30;;;5.50;99.90;;;;;;4947267;28;20468;-67
2021/01/13 10:49:40;;;;;;;4.60;3.23;;;5.40;99.90;;;;;;4948803;28;20475;-67
2021/01/13 10:52:17;;;;;;;6.20;4.77;;;5.20;99.90;;;;;;4943993;29;20448;-67
2021/01/13 10:54:45;;;;;;;13.90;5.67;;;5.20;99.90;;;;;;4949803;29;20443;-66
2021/01/13 10:57:12;;;;;;;4.30;3.90;;;5.40;99.90;;;;;;4946876;28;20456;-67
2021/01/13 10:59:39;;;;;;;4.90;3.50;;;5.30;99.90;;;;;;4948319;28;20468;-67
2021/01/13 11:02:11;;;;;;;8.13;5.43;;;5.40;99.90;;;;;;4943979;29;20480;-67
2021/01/13 11:04:39;;;;;;;6.17;4.67;;;5.40;99.90;;;;;;4947366;29;20436;-67
2021/01/13 11:07:07;;;;;;;6.10;3.40;;;5.30;99.90;;;;;;4944160;28;20458;-67
2021/01/13 11:09:38;;;;;;;9.67;7.80;;;5.30;99.90;;;;;;4944774;29;20456;-67
2021/01/13 11:12:05;;;;;;;5.23;4.50;;;5.20;99.90;;;;;;4948150;29;20444;-67
2021/01/13 11:14:43;;;;;;;11.47;7.90;;;5.30;99.90;;;;;;4948876;28;20543;-68
2021/01/13 11:17:14;;;;;;;3.83;3.53;;;5.50;99.90;;;;;;4944784;29;20456;-67
2021/01/13 11:19:48;;;;;;;7.50;4.50;;;5.40;99.90;;;;;;4935923;29;20467;-65
2021/01/13 11:22:15;;;;;;;5.43;4.27;;;5.30;99.90;;;;;;4949989;29;20471;-65
2021/01/13 11:24:51;;;;;;;5.93;4.77;;;5.70;99.90;;;;;;4948341;29;20485;-67
2021/01/13 11:27:22;;;;;;;9.80;3.93;;;6.20;99.90;;;;;;4938413;28;20471;-66
2021/01/13 11:29:52;;;;;;;5.83;5.33;;;6.50;99.90;;;;;;4934356;29;20441;-66
2021/01/13 11:32:19;;;;;;;6.60;4.70;;;6.50;99.90;;;;;;4949121;28;20459;-68
2021/01/13 11:34:47;;;;;;;7.53;5.00;;;6.40;99.90;;;;;;4947943;28;20452;-66
2021/01/13 11:37:32;;;;;;;9.97;5.63;;;6.30;99.90;;;;;;4936633;29;21253;-67
2021/01/13 11:40:08;;;;;;;6.43;4.43;;;6.30;99.90;;;;;;4938459;28;20543;-67
2021/01/13 11:42:55;;;;;;;6.43;4.07;;;6.10;99.90;;;;;;4949464;28;20440;-67
2021/01/13 11:45:29;;;;;;;5.93;4.17;;;6.00;99.90;;;;;;4947036;29;20946;-67
2021/01/13 11:48:01;;;;;;;5.10;2.83;;;6.10;99.90;;;;;;4939601;28;20468;-66
2021/01/13 11:50:27;;;;;;;5.30;3.50;;;6.20;99.90;;;;;;4948332;28;20445;-67
2021/01/13 11:53:03;;;;;;;7.03;2.77;;;6.20;99.90;;;;;;4947124;29;20448;-67
2021/01/13 11:55:30;;;;;;;2.73;2.53;;;6.40;99.90;;;;;;4948421;29;20456;-67
2021/01/13 11:57:56;;;;;;;3.10;2.30;;;6.30;99.90;;;;;;4941453;28;20464;-67
2021/01/13 12:00:29;;;;;;;3.73;2.80;;;6.30;99.90;;;;;;4947863;28;20519;-67
2021/01/13 12:03:00;;;;;;;6.47;2.30;;;6.30;99.90;;;;;;4948991;29;20469;-67
2021/01/13 12:05:31;;;;;;;5.10;1.97;;;6.20;99.90;;;;;;4949149;29;20807;-68
2021/01/13 12:08:01;;;;;;;6.23;2.37;;;6.20;99.90;;;;;;4936451;28;20463;-66
2021/01/13 12:10:38;;;;;;;5.93;2.03;;;6.40;99.90;;;;;;4943174;29;20617;-67
2021/01/13 12:13:21;;;;;;;5.47;2.20;;;6.40;99.90;;;;;;4941617;29;20440;-66
2021/01/13 12:15:58;;;;;;;3.80;2.07;;;6.30;99.90;;;;;;4948804;28;20432;-67
2021/01/13 12:18:31;;;;;;;6.43;1.50;;;6.10;99.90;;;;;;4940598;28;20471;-66
2021/01/13 12:21:17;;;;;;;3.27;1.87;;;5.90;99.90;;;;;;4947891;29;20436;-66
2021/01/13 12:23:46;;;;;;;5.60;2.53;;;5.40;99.90;;;;;;4941683;28;20441;-67
2021/01/13 12:26:31;;;;;;;4.20;2.07;;;5.30;99.90;;;;;;4937843;29;20432;-67
2021/01/13 12:29:09;;;;;;;4.53;2.10;;;5.30;99.90;;;;;;4944329;29;20523;-68
2021/01/13 12:31:38;;;;;;;3.57;1.50;;;5.40;99.90;;;;;;4945118;29;20471;-68
2021/01/13 12:34:12;;;;;;;4.00;2.73;;;5.40;99.90;;;;;;4947598;29;20440;-68
2021/01/13 12:36:39;;;;;;;4.47;2.77;;;5.30;99.90;;;;;;4943718;28;20472;-68
2021/01/13 12:39:06;;;;;;;6.37;2.97;;;5.30;99.90;;;;;;4944201;28;20476;-68
2021/01/13 12:41:37;;;;;;;4.00;2.47;;;5.70;99.90;;;;;;4948644;28;20786;-68
2021/01/13 12:44:08;;;;;;;3.20;2.13;;;5.80;99.90;;;;;;4946981;29;20443;-68
2021/01/13 12:46:36;;;;;;;3.57;2.97;;;5.70;99.90;;;;;;4948430;29;20529;-68
2021/01/13 12:49:03;;;;;;;3.03;1.80;;;5.70;99.90;;;;;;4943944;28;20446;-68
2021/01/13 12:51:29;;;;;;;3.60;1.97;;;5.60;99.90;;;;;;4947673;28;20456;-69
2021/01/13 12:53:57;;;;;;;1.63;1.50;;;5.50;99.90;;;;;;4948743;29;20453;-68
2021/01/13 12:56:27;;;;;;;6.13;1.40;;;5.50;99.90;;;;;;4948418;28;20592;-68
2021/01/13 12:58:54;;;;;;;1.80;1.50;;;5.80;99.90;;;;;;4944359;29;21103;-68
2021/01/13 13:01:19;;;;;;;5.20;1.87;;;7.30;99.90;;;;;;4948518;29;20776;-68
2021/01/13 13:03:45;;;;;;;10.77;1.70;;;9.40;99.90;;;;;;4948106;29;20447;-69
2021/01/13 13:06:13;;;;;;;5.03;2.07;;;10.70;99.90;;;;;;4948256;29;20606;-68
2021/01/13 13:08:39;;;;;;;2.93;1.70;;;11.00;99.90;;;;;;4940978;28;20177;-69
2021/01/13 13:11:09;;;;;;;3.20;1.37;;;10.50;99.90;;;;;;4948772;28;20450;-68
2021/01/13 13:13:35;;;;;;;6.30;2.10;;;9.10;99.90;;;;;;4950603;28;20819;-68
2021/01/13 13:16:01;;;;;;;6.60;2.10;;;8.00;99.90;;;;;;4952135;28;20444;-68
2021/01/13 13:18:27;;;;;;;3.33;1.20;;;7.80;99.90;;;;;;4941292;29;20297;-68